createdAt,value
2018-12-10T00:00:34.231Z,0.00
2018-12-10T00:01:34.201Z,0.00
2018-12-10T00:02:55.180Z,0.00
2018-12-10T00:03:34.155Z,0.00
2018-12-10T00:04:34.139Z,0.00
2018-12-10T00:05:34.112Z,0.00
2018-12-10T00:06:34.089Z,0.00
2018-12-10T00:07:34.073Z,0.00
2018-12-10T00:08:55.047Z,0.00
2018-12-10T00:09:34.022Z,0.00
2018-12-10T00:10:41.411Z,0.00
2018-12-10T00:11:33.977Z,0.00
2018-12-10T00:12:33.955Z,0.00
2018-12-10T00:13:33.932Z,0.00
2018-12-10T00:14:54.912Z,0.00
2018-12-10T00:15:33.889Z,0.00
2018-12-10T00:16:33.870Z,0.00
2018-12-10T00:17:33.843Z,0.00
2018-12-10T00:18:33.912Z,0.00
2018-12-10T00:19:33.799Z,0.00
2018-12-10T00:20:54.778Z,0.00
2018-12-10T00:21:33.756Z,0.00
2018-12-10T00:22:33.732Z,0.00
2018-12-10T00:23:33.710Z,0.00
2018-12-10T00:24:33.688Z,0.00
2018-12-10T00:25:33.677Z,0.00
2018-12-10T00:26:54.644Z,0.00
2018-12-10T00:27:33.621Z,0.00
2018-12-10T00:28:33.604Z,0.00
2018-12-10T00:29:33.576Z,0.00
2018-12-10T00:30:33.554Z,0.00
2018-12-10T00:31:33.531Z,0.00
2018-12-10T00:32:54.512Z,0.00
2018-12-10T00:33:33.483Z,0.00
2018-12-10T00:34:33.464Z,0.00
2018-12-10T00:35:33.443Z,0.00
2018-12-10T00:36:33.440Z,0.00
2018-12-10T00:37:33.397Z,0.00
2018-12-10T00:38:54.375Z,0.00
2018-12-10T00:39:33.351Z,0.00
2018-12-10T00:40:33.329Z,0.00
2018-12-10T00:41:33.307Z,0.00
2018-12-10T00:42:33.288Z,0.00
2018-12-10T00:43:33.263Z,0.00
2018-12-10T00:44:54.245Z,0.00
2018-12-10T00:45:33.218Z,0.00
2018-12-10T00:46:33.195Z,0.00
2018-12-10T00:47:33.195Z,0.00
2018-12-10T00:48:33.151Z,0.00
2018-12-10T00:49:33.126Z,0.00
2018-12-10T00:50:54.103Z,0.00
2018-12-10T00:51:33.088Z,0.00
2018-12-10T00:52:33.064Z,0.00
2018-12-10T00:53:33.053Z,0.00
2018-12-10T00:54:33.016Z,0.00
2018-12-10T00:55:32.996Z,0.00
2018-12-10T00:56:53.978Z,0.00
2018-12-10T00:57:32.950Z,0.00
2018-12-10T00:58:32.928Z,0.00
2018-12-10T00:59:32.905Z,0.00
2018-12-10T01:00:32.882Z,0.00
2018-12-10T01:01:32.861Z,0.00
2018-12-10T01:02:53.840Z,0.00
2018-12-10T01:03:32.816Z,0.00
2018-12-10T01:04:32.798Z,0.00
2018-12-10T01:05:32.771Z,0.00
2018-12-10T01:06:32.750Z,0.00
2018-12-10T01:07:32.727Z,0.00
2018-12-10T01:08:53.704Z,0.00
2018-12-10T01:09:32.682Z,0.00
2018-12-10T01:10:32.658Z,0.00
2018-12-10T01:11:32.636Z,0.00
2018-12-10T01:12:32.613Z,0.00
2018-12-10T01:13:32.592Z,0.00
2018-12-10T01:14:53.571Z,0.00
2018-12-10T01:15:32.547Z,0.00
2018-12-10T01:16:32.528Z,0.00
2018-12-10T01:17:32.505Z,0.00
2018-12-10T01:18:32.476Z,0.00
2018-12-10T01:19:32.456Z,0.00
2018-12-10T01:20:53.437Z,0.00
2018-12-10T01:21:32.430Z,0.00
2018-12-10T01:22:32.408Z,0.00
2018-12-10T01:23:32.366Z,0.00
2018-12-10T01:24:32.346Z,0.00
2018-12-10T01:25:32.324Z,0.00
2018-12-10T01:26:53.301Z,0.00
2018-12-10T01:27:32.276Z,0.00
2018-12-10T01:28:32.254Z,0.00
2018-12-10T01:29:32.232Z,0.00
2018-12-10T01:30:32.209Z,0.00
2018-12-10T01:31:32.186Z,0.00
2018-12-10T01:32:53.168Z,0.00
2018-12-10T01:33:32.143Z,0.00
2018-12-10T01:34:32.121Z,0.00
2018-12-10T01:35:32.100Z,0.00
2018-12-10T01:36:32.074Z,0.00
2018-12-10T01:37:32.051Z,0.00
2018-12-10T01:38:53.032Z,0.00
2018-12-10T01:39:32.006Z,0.00
2018-12-10T01:40:31.985Z,0.00
2018-12-10T01:41:31.960Z,0.00
2018-12-10T01:42:31.940Z,0.00
2018-12-10T01:43:31.915Z,0.00
2018-12-10T01:44:52.895Z,0.00
2018-12-10T01:45:31.870Z,0.00
2018-12-10T01:46:31.861Z,0.00
2018-12-10T01:47:31.823Z,0.00
2018-12-10T01:48:31.801Z,0.00
2018-12-10T01:49:31.774Z,0.00
2018-12-10T01:50:52.756Z,0.00
2018-12-10T01:51:31.732Z,0.00
2018-12-10T01:52:31.714Z,0.00
2018-12-10T01:53:31.686Z,0.00
2018-12-10T01:54:31.663Z,0.00
2018-12-10T01:55:31.643Z,0.00
2018-12-10T01:56:52.623Z,0.00
2018-12-10T01:57:31.593Z,0.00
2018-12-10T01:58:31.572Z,0.00
2018-12-10T01:59:31.550Z,0.00
2018-12-10T02:00:31.525Z,0.00
2018-12-10T02:01:31.506Z,0.00
2018-12-10T02:02:52.479Z,0.00
2018-12-10T02:03:31.455Z,0.00
2018-12-10T02:04:31.433Z,0.00
2018-12-10T02:05:31.410Z,0.00
2018-12-10T02:06:31.386Z,0.00
2018-12-10T02:07:31.369Z,0.00
2018-12-10T02:08:52.342Z,0.00
2018-12-10T02:09:31.319Z,0.00
2018-12-10T02:10:31.294Z,0.00
2018-12-10T02:11:31.276Z,0.00
2018-12-10T02:12:31.248Z,0.00
2018-12-10T02:13:31.228Z,0.00
2018-12-10T02:14:52.236Z,0.00
2018-12-10T02:15:31.180Z,0.00
2018-12-10T02:16:31.156Z,0.00
2018-12-10T02:17:31.124Z,0.00
2018-12-10T02:18:31.114Z,0.00
2018-12-10T02:19:31.087Z,0.00
2018-12-10T02:20:52.084Z,0.00
2018-12-10T02:21:31.041Z,0.00
2018-12-10T02:22:31.018Z,0.00
2018-12-10T02:23:31.004Z,0.00
2018-12-10T02:24:30.972Z,0.00
2018-12-10T02:25:30.947Z,0.00
2018-12-10T02:26:51.925Z,0.00
2018-12-10T02:27:30.900Z,0.00
2018-12-10T02:28:30.882Z,0.00
2018-12-10T02:29:30.854Z,0.00
2018-12-10T02:30:30.831Z,0.00
2018-12-10T02:31:30.815Z,0.00
2018-12-10T02:32:51.787Z,0.00
2018-12-10T02:33:30.762Z,0.00
2018-12-10T02:34:30.740Z,0.00
2018-12-10T02:35:30.718Z,0.00
2018-12-10T02:36:30.700Z,0.00
2018-12-10T02:37:30.670Z,0.00
2018-12-10T02:38:51.649Z,0.00
2018-12-10T02:39:30.627Z,0.00
2018-12-10T02:40:30.604Z,0.00
2018-12-10T02:41:30.580Z,0.00
2018-12-10T02:42:30.557Z,0.00
2018-12-10T02:43:30.533Z,0.00
2018-12-10T02:44:51.535Z,0.00
2018-12-10T02:45:30.510Z,0.00
2018-12-10T02:46:30.467Z,0.00
2018-12-10T02:47:30.441Z,0.00
2018-12-10T02:48:30.412Z,0.00
2018-12-10T02:49:30.402Z,0.00
2018-12-10T02:50:51.372Z,0.00
2018-12-10T02:51:30.368Z,0.00
2018-12-10T02:52:30.327Z,0.00
2018-12-10T02:53:30.305Z,0.00
2018-12-10T02:54:30.290Z,0.00
2018-12-10T02:55:30.263Z,0.00
2018-12-10T02:56:51.238Z,0.00
2018-12-10T02:57:30.212Z,0.00
2018-12-10T02:58:30.190Z,0.00
2018-12-10T02:59:30.170Z,0.00
2018-12-10T03:00:30.151Z,0.00
2018-12-10T03:01:30.121Z,0.00
2018-12-10T03:02:51.105Z,0.00
2018-12-10T03:03:30.075Z,0.00
2018-12-10T03:04:30.057Z,0.00
2018-12-10T03:05:30.030Z,0.00
2018-12-10T03:06:30.008Z,0.00
2018-12-10T03:07:29.984Z,0.00
2018-12-10T03:08:50.962Z,0.00
2018-12-10T03:09:29.939Z,0.00
2018-12-10T03:10:29.914Z,0.00
2018-12-10T03:11:29.893Z,0.00
2018-12-10T03:12:29.869Z,0.00
2018-12-10T03:13:29.850Z,0.00
2018-12-10T03:14:50.828Z,0.00
2018-12-10T03:15:29.800Z,0.00
2018-12-10T03:16:29.790Z,0.00
2018-12-10T03:17:29.756Z,0.00
2018-12-10T03:18:29.737Z,0.00
2018-12-10T03:19:29.709Z,0.00
2018-12-10T03:20:52.848Z,0.00
2018-12-10T03:21:29.663Z,0.00
2018-12-10T03:22:29.657Z,0.00
2018-12-10T03:23:29.618Z,0.00
2018-12-10T03:24:29.596Z,0.00
2018-12-10T03:25:29.577Z,0.00
2018-12-10T03:26:50.552Z,0.00
2018-12-10T03:27:29.530Z,0.00
2018-12-10T03:28:29.506Z,0.00
2018-12-10T03:29:29.481Z,0.00
2018-12-10T03:30:29.457Z,0.00
2018-12-10T03:31:29.437Z,0.00
2018-12-10T03:32:50.418Z,0.00
2018-12-10T03:33:29.389Z,0.00
2018-12-10T03:34:29.372Z,0.00
2018-12-10T03:35:29.346Z,0.00
2018-12-10T03:36:29.323Z,0.00
2018-12-10T03:37:29.299Z,0.00
2018-12-10T03:38:50.277Z,0.00
2018-12-10T03:39:29.255Z,0.00
2018-12-10T03:40:29.231Z,0.00
2018-12-10T03:41:29.209Z,0.00
2018-12-10T03:42:29.184Z,0.00
2018-12-10T03:43:29.161Z,0.00
2018-12-10T03:44:50.141Z,0.00
2018-12-10T03:45:29.116Z,0.00
2018-12-10T03:46:29.095Z,0.00
2018-12-10T03:47:29.066Z,0.00
2018-12-10T03:48:29.051Z,0.00
2018-12-10T03:49:29.027Z,0.00
2018-12-10T03:50:50.026Z,0.00
2018-12-10T03:51:28.982Z,0.00
2018-12-10T03:52:28.962Z,0.00
2018-12-10T03:53:28.944Z,0.00
2018-12-10T03:54:28.915Z,0.00
2018-12-10T03:55:28.895Z,0.00
2018-12-10T03:56:49.870Z,0.00
2018-12-10T03:57:28.844Z,0.00
2018-12-10T03:58:28.823Z,0.00
2018-12-10T03:59:28.801Z,0.00
2018-12-10T04:00:28.778Z,0.00
2018-12-10T04:01:28.757Z,0.00
2018-12-10T04:02:49.744Z,0.00
2018-12-10T04:03:28.712Z,0.00
2018-12-10T04:04:28.688Z,0.00
2018-12-10T04:05:28.662Z,0.00
2018-12-10T04:06:28.644Z,0.00
2018-12-10T04:07:28.622Z,0.00
2018-12-10T04:08:49.599Z,0.00
2018-12-10T04:09:28.574Z,0.00
2018-12-10T04:10:28.560Z,0.00
2018-12-10T04:11:28.528Z,0.00
2018-12-10T04:12:28.507Z,0.00
2018-12-10T04:13:28.500Z,0.00
2018-12-10T04:14:49.462Z,0.00
2018-12-10T04:15:28.440Z,0.00
2018-12-10T04:16:28.416Z,0.00
2018-12-10T04:17:28.392Z,0.00
2018-12-10T04:18:28.361Z,0.00
2018-12-10T04:19:28.347Z,0.00
2018-12-10T04:20:49.329Z,0.00
2018-12-10T04:21:28.308Z,0.00
2018-12-10T04:22:28.282Z,0.00
2018-12-10T04:23:28.359Z,0.00
2018-12-10T04:24:28.232Z,0.00
2018-12-10T04:25:28.208Z,0.00
2018-12-10T04:26:49.186Z,0.00
2018-12-10T04:27:28.164Z,0.00
2018-12-10T04:28:28.139Z,0.00
2018-12-10T04:29:28.117Z,0.00
2018-12-10T04:30:28.095Z,0.00
2018-12-10T04:31:28.072Z,0.00
2018-12-10T04:32:49.051Z,0.00
2018-12-10T04:33:28.026Z,0.00
2018-12-10T04:34:28.000Z,0.00
2018-12-10T04:35:27.979Z,0.00
2018-12-10T04:36:27.955Z,0.00
2018-12-10T04:37:27.935Z,0.00
2018-12-10T04:38:48.915Z,0.00
2018-12-10T04:39:27.889Z,0.00
2018-12-10T04:40:27.862Z,0.00
2018-12-10T04:41:27.839Z,0.00
2018-12-10T04:42:27.813Z,0.00
2018-12-10T04:43:27.793Z,0.00
2018-12-10T04:44:48.769Z,0.00
2018-12-10T04:45:27.744Z,0.00
2018-12-10T04:46:27.718Z,0.00
2018-12-10T04:47:27.701Z,0.00
2018-12-10T04:48:27.674Z,0.00
2018-12-10T04:49:27.645Z,0.00
2018-12-10T04:50:48.628Z,0.00
2018-12-10T04:51:27.604Z,0.00
2018-12-10T04:52:27.593Z,0.00
2018-12-10T04:53:27.674Z,0.00
2018-12-10T04:54:27.533Z,0.00
2018-12-10T04:55:27.510Z,0.00
2018-12-10T04:56:48.488Z,0.00
2018-12-10T04:57:27.462Z,0.00
2018-12-10T04:58:27.439Z,0.00
2018-12-10T04:59:27.421Z,0.00
2018-12-10T05:00:27.394Z,0.00
2018-12-10T05:01:27.373Z,0.00
2018-12-10T05:02:48.353Z,0.00
2018-12-10T05:03:27.327Z,0.00
2018-12-10T05:04:27.302Z,0.00
2018-12-10T05:05:27.280Z,0.00
2018-12-10T05:06:27.253Z,0.00
2018-12-10T05:07:27.231Z,0.00
2018-12-10T05:08:48.207Z,0.00
2018-12-10T05:09:27.185Z,0.00
2018-12-10T05:10:27.159Z,0.00
2018-12-10T05:11:27.137Z,0.00
2018-12-10T05:12:27.112Z,0.00
2018-12-10T05:13:27.091Z,0.00
2018-12-10T05:14:48.067Z,0.00
2018-12-10T05:15:27.044Z,0.00
2018-12-10T05:16:27.023Z,0.00
2018-12-10T05:17:27.013Z,0.00
2018-12-10T05:18:26.976Z,0.00
2018-12-10T05:19:26.949Z,0.00
2018-12-10T05:20:47.927Z,0.00
2018-12-10T05:21:26.902Z,0.00
2018-12-10T05:22:26.881Z,0.00
2018-12-10T05:23:26.868Z,0.00
2018-12-10T05:24:26.834Z,0.00
2018-12-10T05:25:26.811Z,0.00
2018-12-10T05:26:47.791Z,0.00
2018-12-10T05:27:26.763Z,0.00
2018-12-10T05:28:26.739Z,0.00
2018-12-10T05:29:26.715Z,0.00
2018-12-10T05:30:26.691Z,0.00
2018-12-10T05:31:26.671Z,0.00
2018-12-10T05:32:47.648Z,0.00
2018-12-10T05:33:26.631Z,0.00
2018-12-10T05:34:26.601Z,0.00
2018-12-10T05:35:26.577Z,0.00
2018-12-10T05:36:26.658Z,0.00
2018-12-10T05:37:26.528Z,0.00
2018-12-10T05:38:47.509Z,0.00
2018-12-10T05:39:26.488Z,0.00
2018-12-10T05:40:26.459Z,0.00
2018-12-10T05:41:26.435Z,0.00
2018-12-10T05:42:26.419Z,0.00
2018-12-10T05:43:26.390Z,0.00
2018-12-10T05:44:47.367Z,0.00
2018-12-10T05:45:26.343Z,0.00
2018-12-10T05:46:26.318Z,0.00
2018-12-10T05:47:26.296Z,0.00
2018-12-10T05:48:26.295Z,0.00
2018-12-10T05:49:26.253Z,0.00
2018-12-10T05:50:47.231Z,0.00
2018-12-10T05:51:26.206Z,0.00
2018-12-10T05:52:26.180Z,0.00
2018-12-10T05:53:26.155Z,0.00
2018-12-10T05:54:26.154Z,0.00
2018-12-10T05:55:26.108Z,0.00
2018-12-10T05:56:47.113Z,0.00
2018-12-10T05:57:26.072Z,0.00
2018-12-10T05:58:26.039Z,0.00
2018-12-10T05:59:26.015Z,0.00
2018-12-10T06:00:25.992Z,0.00
2018-12-10T06:01:25.966Z,0.00
2018-12-10T06:02:46.945Z,0.00
2018-12-10T06:03:25.920Z,0.00
2018-12-10T06:04:25.898Z,0.00
2018-12-10T06:05:25.872Z,0.00
2018-12-10T06:06:25.853Z,0.00
2018-12-10T06:07:25.828Z,0.00
2018-12-10T06:08:46.804Z,0.00
2018-12-10T06:09:25.779Z,0.00
2018-12-10T06:10:25.760Z,0.00
2018-12-10T06:11:25.734Z,0.00
2018-12-10T06:12:25.711Z,0.00
2018-12-10T06:13:25.687Z,0.00
2018-12-10T06:14:46.668Z,0.00
2018-12-10T06:15:25.640Z,0.00
2018-12-10T06:16:25.618Z,0.00
2018-12-10T06:17:25.593Z,0.00
2018-12-10T06:18:25.570Z,0.00
2018-12-10T06:19:25.547Z,0.00
2018-12-10T06:20:46.530Z,0.00
2018-12-10T06:21:25.498Z,0.00
2018-12-10T06:22:25.483Z,0.00
2018-12-10T06:23:25.453Z,0.00
2018-12-10T06:24:25.430Z,0.00
2018-12-10T06:25:25.402Z,0.00
2018-12-10T06:26:46.383Z,0.00
2018-12-10T06:27:25.360Z,0.00
2018-12-10T06:28:25.350Z,0.00
2018-12-10T06:29:25.314Z,0.00
2018-12-10T06:30:25.289Z,0.00
2018-12-10T06:31:25.265Z,0.00
2018-12-10T06:32:46.242Z,0.00
2018-12-10T06:33:25.218Z,0.00
2018-12-10T06:34:25.194Z,0.00
2018-12-10T06:35:25.171Z,0.00
2018-12-10T06:36:25.186Z,0.00
2018-12-10T06:37:25.129Z,0.00
2018-12-10T06:38:46.107Z,4.00
2018-12-10T06:39:25.080Z,4.00
2018-12-10T06:40:25.055Z,0.00
2018-12-10T06:41:25.034Z,4.00
2018-12-10T06:42:25.006Z,4.00
2018-12-10T06:43:24.983Z,4.00
2018-12-10T06:44:45.961Z,8.00
2018-12-10T06:45:24.941Z,8.00
2018-12-10T06:46:24.915Z,8.00
2018-12-10T06:47:24.894Z,8.00
2018-12-10T06:48:24.867Z,12.00
2018-12-10T06:49:24.843Z,16.00
2018-12-10T06:50:45.818Z,20.00
2018-12-10T06:51:24.797Z,20.00
2018-12-10T06:52:24.774Z,24.00
2018-12-10T06:53:24.765Z,28.00
2018-12-10T06:54:24.728Z,36.00
2018-12-10T06:55:24.704Z,40.00
2018-12-10T06:56:45.675Z,48.00
2018-12-10T06:57:24.660Z,52.00
2018-12-10T06:58:24.633Z,60.00
2018-12-10T06:59:24.632Z,64.00
2018-12-10T07:00:24.591Z,68.00
2018-12-10T07:01:24.564Z,72.00
2018-12-10T07:02:45.541Z,80.00
2018-12-10T07:03:24.519Z,92.00
2018-12-10T07:04:24.493Z,104.00
2018-12-10T07:05:24.469Z,112.00
2018-12-10T07:06:24.446Z,128.00
2018-12-10T07:07:24.425Z,136.00
2018-12-10T07:08:45.402Z,136.00
2018-12-10T07:09:24.376Z,132.00
2018-12-10T07:10:24.353Z,128.00
2018-12-10T07:11:24.330Z,132.00
2018-12-10T07:12:24.308Z,136.00
2018-12-10T07:13:24.287Z,148.00
2018-12-10T07:14:45.260Z,156.00
2018-12-10T07:15:24.238Z,168.00
2018-12-10T07:16:24.214Z,180.00
2018-12-10T07:17:24.190Z,196.00
2018-12-10T07:18:24.174Z,216.00
2018-12-10T07:19:24.144Z,232.00
2018-12-10T07:20:45.122Z,256.00
2018-12-10T07:21:24.095Z,284.00
2018-12-10T07:22:24.075Z,320.00
2018-12-10T07:23:24.049Z,356.00
2018-12-10T07:24:24.040Z,376.00
2018-12-10T07:25:24.002Z,396.00
2018-12-10T07:26:44.981Z,416.00
2018-12-10T07:27:23.952Z,432.00
2018-12-10T07:28:23.934Z,460.00
2018-12-10T07:29:23.907Z,504.00
2018-12-10T07:30:23.908Z,564.00
2018-12-10T07:31:23.866Z,676.00
2018-12-10T07:32:44.865Z,788.00
2018-12-10T07:33:23.817Z,820.00
2018-12-10T07:34:23.797Z,760.00
2018-12-10T07:35:23.771Z,756.00
2018-12-10T07:36:23.746Z,844.00
2018-12-10T07:37:23.723Z,944.00
2018-12-10T07:38:44.704Z,976.00
2018-12-10T07:39:23.679Z,892.00
2018-12-10T07:40:23.652Z,792.00
2018-12-10T07:41:23.632Z,748.00
2018-12-10T07:42:23.607Z,724.00
2018-12-10T07:43:23.583Z,696.00
2018-12-10T07:44:44.561Z,680.00
2018-12-10T07:45:23.538Z,660.00
2018-12-10T07:46:23.515Z,644.00
2018-12-10T07:47:23.492Z,644.00
2018-12-10T07:48:23.467Z,652.00
2018-12-10T07:49:23.447Z,676.00
2018-12-10T07:50:44.423Z,744.00
2018-12-10T07:51:23.401Z,860.00
2018-12-10T07:52:23.375Z,944.00
2018-12-10T07:53:23.353Z,968.00
2018-12-10T07:54:23.329Z,1000.00
2018-12-10T07:55:23.321Z,1116.00
2018-12-10T07:56:44.285Z,1148.00
2018-12-10T07:57:23.262Z,1228.00
2018-12-10T07:58:23.239Z,1280.00
2018-12-10T07:59:23.214Z,1312.00
2018-12-10T08:00:23.188Z,1344.00
2018-12-10T08:01:23.173Z,1408.00
2018-12-10T08:02:44.146Z,1480.00
2018-12-10T08:03:23.121Z,1512.00
2018-12-10T08:04:23.099Z,1504.00
2018-12-10T08:05:23.077Z,1488.00
2018-12-10T08:06:23.052Z,1544.00
2018-12-10T08:07:23.030Z,1600.00
2018-12-10T08:08:44.006Z,1688.00
2018-12-10T08:09:22.984Z,1808.00
2018-12-10T08:10:22.962Z,1928.00
2018-12-10T08:11:22.943Z,2060.00
2018-12-10T08:12:22.917Z,2140.00
2018-12-10T08:13:23.011Z,2140.00
2018-12-10T08:14:43.870Z,2140.00
2018-12-10T08:15:22.845Z,2152.00
2018-12-10T08:16:22.821Z,2148.00
2018-12-10T08:17:22.803Z,2124.00
2018-12-10T08:18:22.779Z,2028.00
2018-12-10T08:19:22.756Z,1900.00
2018-12-10T08:20:43.731Z,1852.00
2018-12-10T08:21:22.709Z,1924.00
2018-12-10T08:22:22.686Z,2072.00
2018-12-10T08:23:22.685Z,2184.00
2018-12-10T08:24:22.640Z,2272.00
2018-12-10T08:25:23.308Z,2416.00
2018-12-10T08:26:43.598Z,3240.00
2018-12-10T08:27:22.573Z,2708.00
2018-12-10T08:28:22.548Z,3464.00
2018-12-10T08:29:22.545Z,3240.00
2018-12-10T08:30:22.502Z,2980.00
2018-12-10T08:31:22.482Z,3220.00
2018-12-10T08:32:43.462Z,3472.00
2018-12-10T08:33:22.434Z,3744.00
2018-12-10T08:34:22.410Z,4128.00
2018-12-10T08:35:22.389Z,4384.00
2018-12-10T08:36:22.368Z,4648.00
2018-12-10T08:37:22.345Z,4916.00
2018-12-10T08:38:43.322Z,5080.00
2018-12-10T08:39:22.298Z,5084.00
2018-12-10T08:40:22.286Z,4920.00
2018-12-10T08:41:22.254Z,4984.00
2018-12-10T08:42:22.230Z,5128.00
2018-12-10T08:43:22.209Z,5128.00
2018-12-10T08:44:43.187Z,4984.00
2018-12-10T08:45:22.165Z,5656.00
2018-12-10T08:46:22.144Z,5992.00
2018-12-10T08:47:22.127Z,7960.00
2018-12-10T08:48:22.099Z,6620.00
2018-12-10T08:49:22.076Z,4752.00
2018-12-10T08:50:43.055Z,4408.00
2018-12-10T08:51:22.033Z,4680.00
2018-12-10T08:52:22.012Z,4608.00
2018-12-10T08:53:21.987Z,4672.00
2018-12-10T08:54:21.963Z,4728.00
2018-12-10T08:55:21.943Z,4744.00
2018-12-10T08:56:42.927Z,4852.00
2018-12-10T08:57:21.908Z,5084.00
2018-12-10T08:58:21.880Z,5348.00
2018-12-10T08:59:21.859Z,5236.00
2018-12-10T09:00:21.837Z,5480.00
2018-12-10T09:01:21.818Z,5860.00
2018-12-10T09:02:42.795Z,6500.00
2018-12-10T09:03:21.773Z,9352.00
2018-12-10T09:04:21.751Z,9856.00
2018-12-10T09:05:21.730Z,9632.00
2018-12-10T09:06:21.707Z,8256.00
2018-12-10T09:07:21.686Z,9784.00
2018-12-10T09:08:42.668Z,11436.00
2018-12-10T09:09:21.645Z,11656.00
2018-12-10T09:10:21.626Z,11256.00
2018-12-10T09:11:21.604Z,9880.00
2018-12-10T09:12:21.582Z,10728.00
2018-12-10T09:13:21.560Z,7548.00
2018-12-10T09:14:42.542Z,8856.00
2018-12-10T09:15:21.523Z,9780.00
2018-12-10T09:16:21.508Z,8644.00
2018-12-10T09:17:21.482Z,9000.00
2018-12-10T09:18:21.462Z,8212.00
2018-12-10T09:19:21.449Z,7640.00
2018-12-10T09:20:42.429Z,7188.00
2018-12-10T09:21:21.402Z,6952.00
2018-12-10T09:22:21.391Z,6680.00
2018-12-10T09:23:21.363Z,6084.00
2018-12-10T09:24:21.342Z,5720.00
2018-12-10T09:25:24.705Z,5752.00
2018-12-10T09:26:42.303Z,5696.00
2018-12-10T09:27:21.285Z,5516.00
2018-12-10T09:28:21.265Z,5092.00
2018-12-10T09:29:21.243Z,4732.00
2018-12-10T09:30:21.226Z,4592.00
2018-12-10T09:31:21.203Z,4632.00
2018-12-10T09:32:42.183Z,4888.00
2018-12-10T09:33:21.163Z,5084.00
2018-12-10T09:34:21.138Z,4972.00
2018-12-10T09:35:21.120Z,4748.00
2018-12-10T09:36:21.100Z,4320.00
2018-12-10T09:37:21.078Z,3936.00
2018-12-10T09:38:42.081Z,3764.00
2018-12-10T09:39:21.038Z,3952.00
2018-12-10T09:40:21.017Z,4128.00
2018-12-10T09:41:20.989Z,4056.00
2018-12-10T09:42:20.975Z,3976.00
2018-12-10T09:43:20.957Z,4388.00
2018-12-10T09:44:41.936Z,4716.00
2018-12-10T09:45:20.915Z,4436.00
2018-12-10T09:46:27.525Z,4236.00
2018-12-10T09:47:20.870Z,4316.00
2018-12-10T09:48:20.850Z,5032.00
2018-12-10T09:49:20.827Z,6216.00
2018-12-10T09:50:41.808Z,6836.00
2018-12-10T09:51:20.786Z,6868.00
2018-12-10T09:52:20.764Z,6820.00
2018-12-10T09:53:20.746Z,6508.00
2018-12-10T09:54:20.723Z,6264.00
2018-12-10T09:55:20.703Z,5944.00
2018-12-10T09:56:41.697Z,5688.00
2018-12-10T09:57:20.664Z,5944.00
2018-12-10T09:58:20.637Z,5952.00
2018-12-10T09:59:20.618Z,6120.00
2018-12-10T10:00:20.598Z,6040.00
2018-12-10T10:01:20.574Z,5428.00
2018-12-10T10:02:41.561Z,5000.00
2018-12-10T10:03:20.549Z,4748.00
2018-12-10T10:04:20.512Z,4764.00
2018-12-10T10:05:20.493Z,4712.00
2018-12-10T10:06:20.465Z,4412.00
2018-12-10T10:07:28.236Z,3960.00
2018-12-10T10:08:41.431Z,3768.00
2018-12-10T10:09:20.417Z,3952.00
2018-12-10T10:10:20.388Z,4148.00
2018-12-10T10:11:20.366Z,3976.00
2018-12-10T10:12:20.345Z,4136.00
2018-12-10T10:13:20.415Z,4360.00
2018-12-10T10:14:41.306Z,4728.00
2018-12-10T10:15:20.282Z,5088.00
2018-12-10T10:16:20.262Z,4844.00
2018-12-10T10:17:20.241Z,5352.00
2018-12-10T10:18:20.219Z,4300.00
2018-12-10T10:19:20.206Z,3196.00
2018-12-10T10:20:41.176Z,3052.00
2018-12-10T10:21:20.154Z,3220.00
2018-12-10T10:22:20.135Z,3888.00
2018-12-10T10:23:20.114Z,4688.00
2018-12-10T10:24:20.097Z,4712.00
2018-12-10T10:25:20.070Z,4824.00
2018-12-10T10:26:41.050Z,5472.00
2018-12-10T10:27:20.027Z,5504.00
2018-12-10T10:28:20.015Z,5556.00
2018-12-10T10:29:19.981Z,5836.00
2018-12-10T10:30:19.963Z,5444.00
2018-12-10T10:31:19.960Z,5204.00
2018-12-10T10:32:40.922Z,4852.00
2018-12-10T10:33:19.898Z,4012.00
2018-12-10T10:34:19.879Z,5252.00
2018-12-10T10:35:19.857Z,4020.00
2018-12-10T10:36:19.838Z,3828.00
2018-12-10T10:37:19.813Z,4088.00
2018-12-10T10:38:40.792Z,4676.00
2018-12-10T10:39:19.771Z,5204.00
2018-12-10T10:40:19.749Z,5132.00
2018-12-10T10:41:19.729Z,4524.00
2018-12-10T10:42:19.705Z,4144.00
2018-12-10T10:43:19.683Z,3804.00
2018-12-10T10:44:40.663Z,3896.00
2018-12-10T10:45:19.640Z,3692.00
2018-12-10T10:46:19.622Z,3700.00
2018-12-10T10:47:19.601Z,4728.00
2018-12-10T10:48:19.579Z,5176.00
2018-12-10T10:49:19.556Z,5704.00
2018-12-10T10:50:40.534Z,5868.00
2018-12-10T10:51:19.512Z,5264.00
2018-12-10T10:52:19.493Z,5100.00
2018-12-10T10:53:19.477Z,5336.00
2018-12-10T10:54:19.446Z,5632.00
2018-12-10T10:55:19.426Z,5796.00
2018-12-10T10:56:40.426Z,5948.00
2018-12-10T10:57:19.382Z,5516.00
2018-12-10T10:58:19.362Z,5368.00
2018-12-10T10:59:19.340Z,5156.00
2018-12-10T11:00:19.321Z,4996.00
2018-12-10T11:01:19.298Z,5036.00
2018-12-10T11:02:40.277Z,5716.00
2018-12-10T11:03:19.257Z,7576.00
2018-12-10T11:04:19.237Z,7072.00
2018-12-10T11:05:19.213Z,7404.00
2018-12-10T11:06:19.190Z,8224.00
2018-12-10T11:07:19.172Z,7608.00
2018-12-10T11:08:40.155Z,6928.00
2018-12-10T11:09:19.129Z,6676.00
2018-12-10T11:10:19.109Z,5864.00
2018-12-10T11:11:19.085Z,7456.00
2018-12-10T11:12:19.066Z,5980.00
2018-12-10T11:13:19.047Z,5216.00
2018-12-10T11:14:40.050Z,6792.00
2018-12-10T11:15:19.006Z,5856.00
2018-12-10T11:16:18.985Z,5300.00
2018-12-10T11:17:18.966Z,5632.00
2018-12-10T11:18:18.944Z,5456.00
2018-12-10T11:19:18.925Z,5060.00
2018-12-10T11:20:39.906Z,4496.00
2018-12-10T11:21:18.884Z,5248.00
2018-12-10T11:22:18.918Z,5420.00
2018-12-10T11:23:18.841Z,5476.00
2018-12-10T11:24:18.824Z,6132.00
2018-12-10T11:25:18.804Z,6156.00
2018-12-10T11:26:39.786Z,6480.00
2018-12-10T11:27:18.763Z,6144.00
2018-12-10T11:28:18.743Z,6376.00
2018-12-10T11:29:18.725Z,6428.00
2018-12-10T11:30:18.705Z,7080.00
2018-12-10T11:31:18.682Z,7964.00
2018-12-10T11:32:39.667Z,7736.00
2018-12-10T11:33:18.654Z,7664.00
2018-12-10T11:34:18.624Z,8808.00
2018-12-10T11:35:18.602Z,7848.00
2018-12-10T11:36:18.603Z,6224.00
2018-12-10T11:37:18.566Z,5564.00
2018-12-10T11:38:39.546Z,6420.00
2018-12-10T11:39:18.526Z,7556.00
2018-12-10T11:40:18.504Z,8060.00
2018-12-10T11:41:18.485Z,7692.00
2018-12-10T11:42:18.464Z,7576.00
2018-12-10T11:43:18.446Z,7708.00
2018-12-10T11:44:39.430Z,7372.00
2018-12-10T11:45:18.406Z,5616.00
2018-12-10T11:46:18.388Z,5204.00
2018-12-10T11:47:18.372Z,6972.00
2018-12-10T11:48:18.352Z,6944.00
2018-12-10T11:49:18.329Z,6748.00
2018-12-10T11:50:39.314Z,6708.00
2018-12-10T11:51:18.295Z,7648.00
2018-12-10T11:52:18.279Z,7420.00
2018-12-10T11:53:18.261Z,5604.00
2018-12-10T11:54:18.238Z,4652.00
2018-12-10T11:55:18.216Z,4656.00
2018-12-10T11:56:39.204Z,4044.00
2018-12-10T11:57:18.184Z,3868.00
2018-12-10T11:58:18.174Z,3932.00
2018-12-10T11:59:18.148Z,3604.00
2018-12-10T12:00:18.129Z,3336.00
2018-12-10T12:01:18.109Z,3184.00
2018-12-10T12:02:39.093Z,3216.00
2018-12-10T12:03:18.069Z,3236.00
2018-12-10T12:04:18.051Z,3052.00
2018-12-10T12:05:18.033Z,3400.00
2018-12-10T12:06:18.014Z,3828.00
2018-12-10T12:07:17.997Z,4724.00
2018-12-10T12:08:38.981Z,5056.00
2018-12-10T12:09:17.957Z,4688.00
2018-12-10T12:10:17.937Z,4124.00
2018-12-10T12:11:17.917Z,4636.00
2018-12-10T12:12:17.897Z,4792.00
2018-12-10T12:13:17.880Z,4984.00
2018-12-10T12:14:38.855Z,4780.00
2018-12-10T12:15:17.840Z,4864.00
2018-12-10T12:16:17.820Z,4440.00
2018-12-10T12:17:17.812Z,4004.00
2018-12-10T12:18:17.781Z,4576.00
2018-12-10T12:19:17.762Z,4448.00
2018-12-10T12:20:38.744Z,4456.00
2018-12-10T12:21:17.720Z,4860.00
2018-12-10T12:22:17.702Z,5444.00
2018-12-10T12:23:17.682Z,5172.00
2018-12-10T12:24:17.663Z,4900.00
2018-12-10T12:25:17.651Z,5144.00
2018-12-10T12:26:38.626Z,5768.00
2018-12-10T12:27:17.605Z,6392.00
2018-12-10T12:28:17.584Z,6128.00
2018-12-10T12:29:17.565Z,5872.00
2018-12-10T12:30:17.545Z,5608.00
2018-12-10T12:31:17.527Z,5512.00
2018-12-10T12:32:38.509Z,5180.00
2018-12-10T12:33:17.509Z,4760.00
2018-12-10T12:34:17.472Z,4608.00
2018-12-10T12:35:17.455Z,4400.00
2018-12-10T12:36:17.459Z,4312.00
2018-12-10T12:37:17.420Z,4260.00
2018-12-10T12:38:38.402Z,4188.00
2018-12-10T12:39:17.380Z,4148.00
2018-12-10T12:40:17.364Z,4240.00
2018-12-10T12:41:17.356Z,4220.00
2018-12-10T12:42:17.337Z,4216.00
2018-12-10T12:43:17.316Z,4284.00
2018-12-10T12:44:38.299Z,4500.00
2018-12-10T12:45:17.271Z,5016.00